Aeroboteco Virtual Airlines! Uma nuvem a frente.



 INFORMAÇÕES METEOROLÓGICAS
METAR FOR TFFF
ADDS - METARS form results

(0140 UTC 09 March 2021)
Data provider http://aviationweather.gov/metar/data/
 
METAR text: TFFF 090130Z AUTO 09010KT 9999 FEW030 25/20 Q1017 NOSIG
Conditions at: TFFF (LE LAMENTIN/MART, MQ) observed 0130 UTC 09 March 2021
Temperature: 25.0°C (77°F)
Dewpoint: 20.0°C (68°F) [RH = 74%]
Pressure (altimeter): 30.03 inches Hg (1017.0 mb)
Winds: from the E (90 degrees) at 12 MPH (10 knots; 5.1 m/s)
Visibility: 6 or more miles (10+ km)
Ceiling: at least 12,000 feet AGL
Clouds: few clouds at 3000 feet AGL
Weather: no significant weather observed at this time

METAR text: TFFF 090100Z AUTO 09010KT 9999 FEW027 25/20 Q1017 NOSIG
Conditions at: TFFF (LE LAMENTIN/MART, MQ) observed 0100 UTC 09 March 2021
Temperature: 25.0°C (77°F)
Dewpoint: 20.0°C (68°F) [RH = 74%]
Pressure (altimeter): 30.03 inches Hg (1017.0 mb)
Winds: from the E (90 degrees) at 12 MPH (10 knots; 5.1 m/s)
Visibility: 6 or more miles (10+ km)
Ceiling: at least 12,000 feet AGL
Clouds: few clouds at 2700 feet AGL
Weather: no significant weather observed at this time

Forecast for: TFFF (LE LAMENTIN/MART, MQ)
Text: TAF TFFF 082200Z 0900/0924 09013KT 9999 SCT030
Forecast period: 0000 UTC 09 March 2021 to 0000 UTC 10 March 2021
Forecast type: FROM: standard forecast or significant change
Winds: from the E (90 degrees) at 15 MPH (13 knots; 6.7 m/s)
Visibility: 6 or more miles (10+ km)
Ceiling: at least 12,000 feet AGL
Clouds: scattered clouds at 3000 feet AGL
Weather: no significant weather forecast for this period
Text: TEMPO 0906/0924 4500 SHRA SCT018TCU
Forecast period: 0600 UTC 09 March 2021 to 0000 UTC 10 March 2021
Forecast type: TEMPORARY: The following changes expected for less than half the time period
Visibility: 2.80 miles (4.51 km)
Ceiling: at least 12,000 feet AGL
Clouds: scattered clouds at 1800 feet AGL
Weather: SHRA  (rain showers)
Text: TEMPO 0912/0924 09015G30KT
Forecast period: 1200 UTC 09 March 2021 to 0000 UTC 10 March 2021
Forecast type: TEMPORARY: The following changes expected for less than half the time period
Winds: from the E (90 degrees) at 17 MPH (15 knots; 7.7 m/s)
gusting to 34 MPH (30 knots; 15.4 m/s)
Visibility: missing
Ceiling: unknown
Clouds: missing
Weather: no significant weather forecast for this period

 MAPA DO AEROPORTO

 INFORMAÇÕES DA PISTA
Pista 10 Tamanho da pista 10826 ft Largura da pista 147 ft
Elevação da pista 10 ft Ranhura da pista 0 ft Proa da pista 80
Pista 28 Tamanho da pista 10826 ft Largura da pista 147 ft
Elevação da pista 14 ft Ranhura da pista 984 ft Proa da pista 260

 FREQUÊNCIAS DO AEROPORTO
Tipo APP Nome FORT DE FR Frequência 121 MHZ
Tipo ATIS Nome ATIS Frequência 127.85 MHZ
Tipo GND Nome GND Frequência 121.9 MHZ
Tipo TWR Nome FORT DE FR Frequência 118.5 MHZ

 AUXÍLIOS DE NAVEGAÇÃO PRÓXIMOS AO AEROPORTO
Tipo VOR-DME Nome Fort De France Frequência 113300 KHZ
Tipo NDB Nome Fort De France Frequência 329 KHZ